createdAt,value
2019-04-11T00:00:05.834Z,4.664001
2019-04-11T00:00:30.103Z,4.664001
2019-04-11T00:00:54.347Z,4.664001
2019-04-11T00:01:18.649Z,4.664001
2019-04-11T00:01:48.501Z,4.664001
2019-04-11T00:02:11.134Z,4.674072
2019-04-11T00:02:35.398Z,4.653931
2019-04-11T00:02:59.701Z,4.653931
2019-04-11T00:03:23.970Z,4.653931
2019-04-11T00:03:48.254Z,4.653931
2019-04-11T00:04:12.522Z,4.653931
2019-04-11T00:04:36.791Z,4.633789
2019-04-11T00:05:01.089Z,4.623718
2019-04-11T00:05:25.433Z,4.623718
2019-04-11T00:05:49.708Z,4.623718
2019-04-11T00:06:13.971Z,4.623718
2019-04-11T00:06:38.294Z,4.633789
2019-04-11T00:07:02.588Z,4.623718
2019-04-11T00:07:26.864Z,4.623718
2019-04-11T00:07:51.159Z,4.653931
2019-04-11T00:08:16.476Z,4.653931
2019-04-11T00:08:40.741Z,4.653931
2019-04-11T00:09:04.985Z,4.653931
2019-04-11T00:09:29.279Z,4.653931
2019-04-11T00:09:53.576Z,4.653931
2019-04-11T00:10:19.690Z,4.664001
2019-04-11T00:10:43.949Z,4.633789
2019-04-11T00:11:08.247Z,4.653931
2019-04-11T00:11:32.490Z,4.633789
2019-04-11T00:11:56.763Z,4.623718
2019-04-11T00:12:21.043Z,4.603577
2019-04-11T00:12:45.345Z,4.623718
2019-04-11T00:13:18.784Z,4.633789
2019-04-11T00:13:37.935Z,4.633789
2019-04-11T00:14:02.166Z,4.623718
2019-04-11T00:14:26.476Z,4.623718
2019-04-11T00:14:50.696Z,4.623718
2019-04-11T00:15:15.029Z,4.623718
2019-04-11T00:15:39.311Z,4.603577
2019-04-11T00:16:03.592Z,4.623718
2019-04-11T00:16:27.851Z,4.623718
2019-04-11T00:16:52.128Z,4.603577
2019-04-11T00:17:16.409Z,4.603577
2019-04-11T00:17:40.728Z,4.623718
2019-04-11T00:18:05.027Z,4.623718
2019-04-11T00:18:29.289Z,4.603577
2019-04-11T00:18:53.585Z,4.583435
2019-04-11T00:19:17.913Z,4.583435
2019-04-11T00:19:42.215Z,4.543152
2019-04-11T00:20:06.504Z,4.543152
2019-04-11T00:20:30.737Z,4.543152
2019-04-11T00:20:55.015Z,4.52301
2019-04-11T00:21:19.307Z,4.52301
2019-04-11T00:21:43.637Z,4.543152
2019-04-11T00:22:07.933Z,4.543152
2019-04-11T00:22:32.241Z,4.52301
2019-04-11T00:22:56.463Z,4.52301
2019-04-11T00:23:20.725Z,4.52301
2019-04-11T00:23:44.980Z,4.512939
2019-04-11T00:24:09.277Z,4.502869
2019-04-11T00:24:33.535Z,4.512939
2019-04-11T00:24:57.817Z,4.512939
2019-04-11T00:25:22.131Z,4.52301
2019-04-11T00:25:46.417Z,4.512939
2019-04-11T00:26:10.707Z,4.512939
2019-04-11T00:26:35.040Z,4.52301
2019-04-11T00:26:59.296Z,4.543152
2019-04-11T00:27:23.554Z,4.52301
2019-04-11T00:27:47.871Z,4.52301
2019-04-11T00:28:12.132Z,4.52301
2019-04-11T00:28:36.397Z,4.512939
2019-04-11T00:29:00.660Z,4.512939
2019-04-11T00:29:24.967Z,4.502869
2019-04-11T00:29:50.292Z,4.472656
2019-04-11T00:30:14.539Z,4.482727
2019-04-11T00:30:38.840Z,4.472656
2019-04-11T00:31:03.171Z,4.482727
2019-04-11T00:31:27.436Z,4.482727
2019-04-11T00:31:51.720Z,4.482727
2019-04-11T00:32:16.004Z,4.502869
2019-04-11T00:32:40.297Z,4.482727
2019-04-11T00:33:04.531Z,4.502869
2019-04-11T00:33:28.845Z,4.482727
2019-04-11T00:33:53.160Z,4.472656
2019-04-11T00:34:17.434Z,4.472656
2019-04-11T00:34:41.715Z,4.482727
2019-04-11T00:35:05.957Z,4.452515
2019-04-11T00:35:30.246Z,4.472656
2019-04-11T00:35:54.577Z,4.472656
2019-04-11T00:36:18.897Z,4.442444
2019-04-11T00:36:43.190Z,4.452515
2019-04-11T00:37:07.460Z,4.422302
2019-04-11T00:37:31.745Z,4.422302
2019-04-11T00:37:56.051Z,4.422302
2019-04-11T00:38:20.387Z,4.422302
2019-04-11T00:38:44.680Z,4.442444
2019-04-11T00:39:09.977Z,4.422302
2019-04-11T00:39:34.314Z,4.442444
2019-04-11T00:39:58.578Z,4.442444
2019-04-11T00:40:23.767Z,4.442444
2019-04-11T00:40:48.050Z,4.422302
2019-04-11T00:41:12.319Z,4.422302
2019-04-11T00:41:36.629Z,4.402161
2019-04-11T00:42:00.937Z,4.371948
2019-04-11T00:42:25.194Z,4.361877
2019-04-11T00:42:49.472Z,4.341736
2019-04-11T00:43:13.765Z,4.331665
2019-04-11T00:43:42.457Z,4.321594
2019-04-11T00:44:05.249Z,4.331665
2019-04-11T00:44:29.510Z,4.341736
2019-04-11T00:44:53.836Z,4.321594
2019-04-11T00:45:18.141Z,4.321594
2019-04-11T00:45:42.466Z,4.321594
2019-04-11T00:46:06.734Z,4.291382
2019-04-11T00:46:31.008Z,4.27124
2019-04-11T00:46:55.293Z,4.261169
2019-04-11T00:47:19.562Z,4.261169
2019-04-11T00:47:43.882Z,4.261169
2019-04-11T00:48:08.142Z,4.241028
2019-04-11T00:48:32.422Z,4.241028
2019-04-11T00:48:56.660Z,4.241028
2019-04-11T00:49:20.947Z,4.230957
2019-04-11T00:49:45.245Z,4.241028
2019-04-11T00:50:09.592Z,4.230957
2019-04-11T00:50:33.907Z,4.230957
2019-04-11T00:50:58.227Z,4.241028
2019-04-11T00:51:22.460Z,4.230957
2019-04-11T00:51:46.725Z,4.230957
2019-04-11T00:52:10.997Z,4.230957
2019-04-11T00:52:36.007Z,4.220886
2019-04-11T00:53:00.339Z,4.220886
2019-04-11T00:53:24.631Z,4.230957
2019-04-11T00:53:48.914Z,4.230957
2019-04-11T00:54:13.227Z,4.241028
2019-04-11T00:54:37.537Z,4.241028
2019-04-11T00:55:01.836Z,4.241028
2019-04-11T00:55:26.134Z,4.230957
2019-04-11T00:55:50.427Z,4.220886
2019-04-11T00:56:14.670Z,4.241028
2019-04-11T00:56:38.951Z,4.230957
2019-04-11T00:57:03.251Z,4.241028
2019-04-11T00:57:27.528Z,4.241028
2019-04-11T00:57:51.831Z,4.261169
2019-04-11T00:58:16.119Z,4.261169
2019-04-11T00:58:40.412Z,4.27124
2019-04-11T00:59:04.677Z,4.261169
2019-04-11T00:59:28.957Z,4.241028
2019-04-11T00:59:53.228Z,4.241028
2019-04-11T01:00:17.564Z,4.241028
2019-04-11T01:00:41.840Z,4.241028
2019-04-11T01:01:06.122Z,4.241028
2019-04-11T01:01:30.406Z,4.220886
2019-04-11T01:01:55.751Z,4.200745
2019-04-11T01:02:20.004Z,4.180603
2019-04-11T01:02:44.304Z,4.180603
2019-04-11T01:03:08.584Z,4.160461
2019-04-11T01:03:32.833Z,4.160461
2019-04-11T01:03:58.079Z,4.120178
2019-04-11T01:04:22.397Z,4.14032
2019-04-11T01:04:47.664Z,4.120178
2019-04-11T01:05:11.945Z,4.120178
2019-04-11T01:05:36.278Z,4.14032
2019-04-11T01:06:00.502Z,4.14032
2019-04-11T01:06:24.797Z,4.14032
2019-04-11T01:06:49.073Z,4.14032
2019-04-11T01:07:13.364Z,4.120178
2019-04-11T01:07:37.622Z,4.120178
2019-04-11T01:08:01.965Z,4.089966
2019-04-11T01:08:26.288Z,4.14032
2019-04-11T01:08:50.542Z,4.120178
2019-04-11T01:09:14.829Z,4.120178
2019-04-11T01:09:39.124Z,4.110107
2019-04-11T01:10:03.401Z,4.110107
2019-04-11T01:10:28.895Z,4.089966
2019-04-11T01:10:54.150Z,4.079895
2019-04-11T01:11:18.466Z,4.059753
2019-04-11T01:11:42.695Z,4.079895
2019-04-11T01:12:06.988Z,4.049683
2019-04-11T01:12:31.258Z,4.059753
2019-04-11T01:12:55.588Z,4.059753
2019-04-11T01:13:19.840Z,4.049683
2019-04-11T01:13:50.657Z,4.049683
2019-04-11T01:14:12.170Z,4.039612
2019-04-11T01:14:37.567Z,4.049683
2019-04-11T01:15:01.801Z,4.049683
2019-04-11T01:15:26.105Z,4.059753
2019-04-11T01:15:51.344Z,4.049683
2019-04-11T01:16:22.376Z,4.039612
2019-04-11T01:16:47.429Z,4.01947
2019-04-11T01:17:11.738Z,3.999329
2019-04-11T01:17:36.032Z,3.999329
2019-04-11T01:18:00.366Z,3.979187
2019-04-11T01:18:24.621Z,3.979187
2019-04-11T01:18:48.910Z,3.979187
2019-04-11T01:19:13.160Z,3.979187
2019-04-11T01:19:37.481Z,3.979187
2019-04-11T01:20:01.788Z,3.979187
2019-04-11T01:20:26.124Z,3.979187
2019-04-11T01:20:50.425Z,3.979187
2019-04-11T01:21:14.772Z,3.979187
2019-04-11T01:21:39.298Z,3.999329
2019-04-11T01:22:04.590Z,3.969116
2019-04-11T01:22:28.824Z,3.959045
2019-04-11T01:22:53.172Z,3.959045
2019-04-11T01:23:17.525Z,3.938904
2019-04-11T01:23:41.831Z,3.969116
2019-04-11T01:24:06.093Z,3.959045
2019-04-11T01:24:30.371Z,3.959045
2019-04-11T01:24:54.673Z,3.938904
2019-04-11T01:25:19.014Z,3.959045
2019-04-11T01:25:43.347Z,3.938904
2019-04-11T01:26:07.624Z,3.969116
2019-04-11T01:26:31.896Z,3.979187
2019-04-11T01:26:56.225Z,3.979187
2019-04-11T01:27:20.512Z,3.999329
2019-04-11T01:27:44.783Z,3.999329
2019-04-11T01:28:09.102Z,3.979187
2019-04-11T01:28:33.372Z,3.999329
2019-04-11T01:28:57.703Z,3.999329
2019-04-11T01:29:21.974Z,3.979187
2019-04-11T01:29:46.298Z,3.969116
2019-04-11T01:30:10.567Z,3.979187
2019-04-11T01:30:35.592Z,3.979187
2019-04-11T01:30:59.921Z,3.979187
2019-04-11T01:31:24.201Z,3.979187
2019-04-11T01:31:48.519Z,3.979187
2019-04-11T01:32:12.800Z,3.969116
2019-04-11T01:32:37.074Z,3.959045
2019-04-11T01:33:01.365Z,3.938904
2019-04-11T01:33:26.460Z,3.959045
2019-04-11T01:33:50.742Z,3.938904
2019-04-11T01:34:15.111Z,3.928833
2019-04-11T01:34:39.364Z,3.908691
2019-04-11T01:35:03.680Z,3.878479
2019-04-11T01:35:27.949Z,3.858337
2019-04-11T01:35:52.245Z,3.858337
2019-04-11T01:36:17.471Z,3.868408
2019-04-11T01:36:41.790Z,3.868408
2019-04-11T01:37:06.113Z,3.858337
2019-04-11T01:37:30.393Z,3.828125
2019-04-11T01:37:54.666Z,3.858337
2019-04-11T01:38:21.165Z,3.838196
2019-04-11T01:38:43.212Z,3.858337
2019-04-11T01:39:07.468Z,3.868408
2019-04-11T01:39:31.727Z,3.858337
2019-04-11T01:39:56.027Z,3.868408
2019-04-11T01:40:20.279Z,3.868408
2019-04-11T01:40:44.572Z,3.858337
2019-04-11T01:41:08.888Z,3.858337
2019-04-11T01:41:33.192Z,3.828125
2019-04-11T01:41:57.481Z,3.838196
2019-04-11T01:42:21.781Z,3.838196
2019-04-11T01:42:46.084Z,3.797913
2019-04-11T01:43:10.389Z,3.828125
2019-04-11T01:43:34.662Z,3.797913
2019-04-11T01:44:04.090Z,3.838196
2019-04-11T01:44:27.254Z,3.838196
2019-04-11T01:44:51.606Z,3.858337
2019-04-11T01:45:15.941Z,3.858337
2019-04-11T01:45:40.230Z,3.858337
2019-04-11T01:46:04.483Z,3.868408
2019-04-11T01:46:28.764Z,3.828125
2019-04-11T01:46:53.051Z,3.838196
2019-04-11T01:47:17.315Z,3.838196
2019-04-11T01:47:41.637Z,3.828125
2019-04-11T01:48:05.922Z,3.838196
2019-04-11T01:48:30.199Z,3.838196
2019-04-11T01:48:54.482Z,3.828125
2019-04-11T01:49:18.730Z,3.797913
2019-04-11T01:49:43.029Z,3.828125
2019-04-11T01:50:07.306Z,3.797913
2019-04-11T01:50:31.625Z,3.828125
2019-04-11T01:50:55.939Z,3.787842
2019-04-11T01:51:20.209Z,3.787842
2019-04-11T01:51:44.482Z,3.787842
2019-04-11T01:52:08.776Z,3.787842
2019-04-11T01:52:33.069Z,3.787842
2019-04-11T01:52:57.376Z,3.777771
2019-04-11T01:53:21.582Z,3.757629
2019-04-11T01:53:45.821Z,3.757629
2019-04-11T01:54:10.110Z,3.757629
2019-04-11T01:54:34.368Z,3.747559
2019-04-11T01:54:58.654Z,3.747559
2019-04-11T01:55:23.023Z,3.777771
2019-04-11T01:55:47.312Z,3.757629
2019-04-11T01:56:11.616Z,3.757629
2019-04-11T01:56:35.907Z,3.747559
2019-04-11T01:57:00.198Z,3.717346
2019-04-11T01:57:24.485Z,3.717346
2019-04-11T01:57:48.819Z,3.747559
2019-04-11T01:58:13.120Z,3.727417
2019-04-11T01:58:37.404Z,3.717346
2019-04-11T01:59:01.693Z,3.727417
2019-04-11T01:59:25.992Z,3.717346
2019-04-11T01:59:50.263Z,3.687134
2019-04-11T02:00:14.507Z,3.687134
2019-04-11T02:00:38.831Z,3.687134
2019-04-11T02:01:03.131Z,3.646851
2019-04-11T02:01:27.416Z,3.656921
2019-04-11T02:01:51.696Z,3.677063
2019-04-11T02:02:15.992Z,3.677063
2019-04-11T02:02:41.254Z,3.656921
2019-04-11T02:03:05.529Z,3.677063
2019-04-11T02:03:29.815Z,3.656921
2019-04-11T02:03:54.109Z,3.646851
2019-04-11T02:04:18.405Z,3.656921
2019-04-11T02:04:42.836Z,3.677063
2019-04-11T02:05:07.253Z,3.677063
2019-04-11T02:05:31.685Z,3.687134
2019-04-11T02:05:56.031Z,3.687134
2019-04-11T02:06:20.393Z,3.677063
2019-04-11T02:06:44.751Z,3.687134
2019-04-11T02:07:09.019Z,3.687134
2019-04-11T02:07:33.298Z,3.656921
2019-04-11T02:07:57.596Z,3.646851
2019-04-11T02:08:21.892Z,3.616638
2019-04-11T02:08:46.175Z,3.646851
2019-04-11T02:09:10.545Z,3.646851
2019-04-11T02:09:34.807Z,3.616638
2019-04-11T02:09:59.073Z,3.616638
2019-04-11T02:10:23.343Z,3.616638
2019-04-11T02:10:47.660Z,3.646851
2019-04-11T02:11:11.936Z,3.616638
2019-04-11T02:11:36.243Z,3.606567
2019-04-11T02:12:00.547Z,3.606567
2019-04-11T02:12:25.749Z,3.606567
2019-04-11T02:12:50.039Z,3.596497
2019-04-11T02:13:14.322Z,3.596497
2019-04-11T02:13:38.619Z,3.596497
2019-04-11T02:14:10.304Z,3.596497
2019-04-11T02:14:30.209Z,3.596497
2019-04-11T02:14:54.507Z,3.606567
2019-04-11T02:15:18.797Z,3.606567
2019-04-11T02:15:43.131Z,3.606567
2019-04-11T02:16:07.407Z,3.616638
2019-04-11T02:16:31.680Z,3.606567
2019-04-11T02:16:55.919Z,3.596497
2019-04-11T02:17:21.223Z,3.576355
2019-04-11T02:17:45.589Z,3.566284
2019-04-11T02:18:09.844Z,3.566284
2019-04-11T02:18:34.148Z,3.546143
2019-04-11T02:18:58.474Z,3.576355
2019-04-11T02:19:22.742Z,3.546143
2019-04-11T02:19:47.023Z,3.536072
2019-04-11T02:20:11.369Z,3.51593
2019-04-11T02:20:35.697Z,3.495789
2019-04-11T02:20:59.989Z,3.495789
2019-04-11T02:21:24.305Z,3.51593
2019-04-11T02:21:48.556Z,3.505859
2019-04-11T02:22:12.793Z,3.51593
2019-04-11T02:22:37.081Z,3.505859
2019-04-11T02:23:01.375Z,3.505859
2019-04-11T02:23:25.712Z,3.495789
2019-04-11T02:23:50.017Z,3.495789
2019-04-11T02:24:14.282Z,3.465576
2019-04-11T02:24:38.582Z,3.445435
2019-04-11T02:25:02.798Z,3.465576
2019-04-11T02:25:27.097Z,3.445435
2019-04-11T02:25:51.386Z,3.445435
2019-04-11T02:26:15.682Z,3.465576
2019-04-11T02:26:40.018Z,3.495789
2019-04-11T02:27:05.348Z,3.495789
2019-04-11T02:27:29.592Z,3.495789
2019-04-11T02:27:54.889Z,3.495789
2019-04-11T02:28:19.164Z,3.505859
2019-04-11T02:28:43.528Z,3.475647
2019-04-11T02:29:07.809Z,3.465576
2019-04-11T02:29:32.110Z,3.465576
2019-04-11T02:29:57.384Z,3.445435
2019-04-11T02:30:23.826Z,3.445435
2019-04-11T02:30:49.280Z,3.415222
2019-04-11T02:31:15.509Z,3.425293
2019-04-11T02:31:40.700Z,3.395081
2019-04-11T02:32:06.004Z,3.395081
2019-04-11T02:32:30.213Z,3.395081
2019-04-11T02:32:54.492Z,3.415222
2019-04-11T02:33:19.895Z,3.415222
2019-04-11T02:33:45.090Z,3.395081
2019-04-11T02:34:09.471Z,3.415222
2019-04-11T02:34:33.731Z,3.415222
2019-04-11T02:34:59.799Z,3.395081
2019-04-11T02:35:25.206Z,3.415222
2019-04-11T02:35:50.429Z,3.395081
2019-04-11T02:36:14.842Z,3.38501
2019-04-11T02:36:38.992Z,3.38501
2019-04-11T02:37:03.307Z,3.38501
2019-04-11T02:37:27.719Z,3.364868
2019-04-11T02:37:53.035Z,3.364868
2019-04-11T02:38:17.300Z,3.38501
2019-04-11T02:38:42.611Z,3.38501
2019-04-11T02:39:12.780Z,3.395081
2019-04-11T02:39:37.023Z,3.395081
2019-04-11T02:40:01.563Z,3.38501
2019-04-11T02:40:25.777Z,3.364868
2019-04-11T02:40:51.005Z,3.38501
2019-04-11T02:41:15.339Z,3.364868
2019-04-11T02:41:40.680Z,3.364868
2019-04-11T02:42:04.954Z,3.364868
2019-04-11T02:42:29.221Z,3.38501
2019-04-11T02:42:53.496Z,3.364868
2019-04-11T02:43:18.777Z,3.38501
2019-04-11T02:43:45.192Z,3.354797
2019-04-11T02:44:26.827Z,3.364868
2019-04-11T02:44:54.052Z,3.364868
2019-04-11T02:45:19.496Z,3.364868
2019-04-11T02:45:44.949Z,3.334656
2019-04-11T02:46:11.250Z,3.354797
2019-04-11T02:46:35.168Z,3.334656
2019-04-11T02:47:01.598Z,3.294373
2019-04-11T02:47:25.205Z,3.284302
2019-04-11T02:47:49.077Z,3.314514
2019-04-11T02:48:14.705Z,3.294373
2019-04-11T02:48:38.992Z,3.294373
2019-04-11T02:49:04.328Z,3.314514
2019-04-11T02:49:29.373Z,3.314514
2019-04-11T02:49:53.585Z,3.294373
2019-04-11T02:50:19.642Z,3.284302
2019-04-11T02:50:44.228Z,3.26416
2019-04-11T02:51:08.460Z,3.26416
2019-04-11T02:51:32.840Z,3.284302
2019-04-11T02:51:57.086Z,3.26416
2019-04-11T02:52:21.404Z,3.26416
2019-04-11T02:52:45.710Z,3.244019
2019-04-11T02:53:11.059Z,3.233948
2019-04-11T02:53:35.287Z,3.233948
2019-04-11T02:54:00.450Z,3.244019
2019-04-11T02:54:26.904Z,3.244019
2019-04-11T02:54:51.077Z,3.26416
2019-04-11T02:55:15.316Z,3.26416
2019-04-11T02:55:39.806Z,3.26416
2019-04-11T02:56:04.200Z,3.233948
2019-04-11T02:56:29.519Z,3.233948
2019-04-11T02:56:55.789Z,3.233948
2019-04-11T02:57:19.986Z,3.213806
2019-04-11T02:57:44.348Z,3.203735
2019-04-11T02:58:08.784Z,3.203735
2019-04-11T02:58:33.012Z,3.183594
2019-04-11T02:58:58.412Z,3.173523
2019-04-11T02:59:23.657Z,3.173523
2019-04-11T02:59:49.813Z,3.153381
2019-04-11T03:00:14.116Z,3.153381
2019-04-11T03:00:38.437Z,3.153381
2019-04-11T03:01:05.721Z,3.153381
2019-04-11T03:01:30.230Z,3.153381
2019-04-11T03:01:54.366Z,3.153381
2019-04-11T03:02:19.980Z,3.153381
2019-04-11T03:02:45.990Z,3.153381
2019-04-11T03:03:11.319Z,3.153381
2019-04-11T03:03:35.467Z,3.143311
2019-04-11T03:03:59.894Z,3.173523
2019-04-11T03:04:25.091Z,3.173523
2019-04-11T03:04:49.482Z,3.173523
2019-04-11T03:05:14.813Z,3.173523
2019-04-11T03:05:39.989Z,3.183594
2019-04-11T03:06:05.300Z,3.173523
2019-04-11T03:06:29.455Z,3.203735
2019-04-11T03:06:53.838Z,3.203735
2019-04-11T03:07:18.888Z,3.183594
2019-04-11T03:07:44.168Z,3.183594
2019-04-11T03:08:11.946Z,3.173523
2019-04-11T03:08:37.073Z,3.173523
2019-04-11T03:09:00.964Z,3.183594
2019-04-11T03:09:25.233Z,3.173523
2019-04-11T03:09:49.590Z,3.173523
2019-04-11T03:10:14.779Z,3.183594
2019-04-11T03:10:39.144Z,3.183594
2019-04-11T03:11:03.493Z,3.203735
2019-04-11T03:11:28.747Z,3.173523
2019-04-11T03:11:52.979Z,3.173523
2019-04-11T03:12:17.355Z,3.153381
2019-04-11T03:12:41.608Z,3.153381
2019-04-11T03:13:06.885Z,3.173523
2019-04-11T03:13:31.284Z,3.173523
2019-04-11T03:13:56.568Z,3.183594
2019-04-11T03:14:21.641Z,3.173523
2019-04-11T03:15:05.149Z,3.183594
2019-04-11T03:15:31.544Z,3.173523
2019-04-11T03:15:59.123Z,3.173523
2019-04-11T03:16:24.618Z,3.153381
2019-04-11T03:16:48.909Z,3.13324
2019-04-11T03:17:12.731Z,3.103027
2019-04-11T03:17:36.637Z,3.103027
2019-04-11T03:18:02.711Z,3.082886
2019-04-11T03:18:45.266Z,3.052673
2019-04-11T03:19:09.729Z,3.032532
2019-04-11T03:19:33.660Z,3.052673
2019-04-11T03:20:02.579Z,3.062744
2019-04-11T03:20:23.823Z,3.052673
2019-04-11T03:20:49.455Z,3.052673
2019-04-11T03:21:14.346Z,3.052673
2019-04-11T03:21:39.813Z,3.062744
2019-04-11T03:22:04.098Z,3.062744
2019-04-11T03:22:28.345Z,3.052673
2019-04-11T03:22:57.882Z,3.032532
2019-04-11T03:23:21.560Z,3.022461
2019-04-11T03:23:45.313Z,3.002319
2019-04-11T03:24:11.661Z,2.992249
2019-04-11T03:24:36.901Z,2.962036
2019-04-11T03:25:01.220Z,2.931824
2019-04-11T03:25:26.526Z,2.931824
2019-04-11T03:25:50.724Z,2.931824
2019-04-11T03:26:15.111Z,2.951965
2019-04-11T03:26:39.394Z,2.951965
2019-04-11T03:27:05.429Z,2.962036
2019-04-11T03:27:30.968Z,2.972107
2019-04-11T03:27:55.241Z,2.972107
2019-04-11T03:28:23.538Z,2.972107
2019-04-11T03:28:50.090Z,2.962036
2019-04-11T03:29:14.043Z,2.931824
2019-04-11T03:29:39.260Z,2.931824
2019-04-11T03:30:04.180Z,2.951965
2019-04-11T03:30:46.265Z,2.951965
2019-04-11T03:31:26.094Z,2.951965
2019-04-11T03:33:00.153Z,2.951965
2019-04-11T03:33:42.539Z,2.931824
2019-04-11T03:34:00.902Z,2.921753
2019-04-11T03:35:19.630Z,2.951965
2019-04-11T03:36:47.432Z,2.931824
2019-04-11T03:37:25.711Z,2.931824
2019-04-11T03:37:42.731Z,2.921753
2019-04-11T03:38:03.394Z,2.921753
2019-04-11T03:38:36.304Z,2.951965
2019-04-11T03:39:00.108Z,2.951965
2019-04-11T03:39:27.575Z,2.951965
2019-04-11T03:39:50.506Z,2.962036
2019-04-11T03:40:21.842Z,2.962036
2019-04-11T03:40:49.911Z,2.951965
2019-04-11T03:41:15.371Z,2.951965
2019-04-11T03:41:40.543Z,2.951965
2019-04-11T03:42:09.327Z,2.901611
2019-04-11T03:42:35.031Z,2.921753
2019-04-11T03:43:01.067Z,2.901611
2019-04-11T03:43:26.018Z,2.951965
2019-04-11T03:43:50.779Z,2.921753
2019-04-11T03:44:16.512Z,2.951965
2019-04-11T03:44:40.084Z,2.931824
2019-04-11T03:45:25.216Z,2.931824
2019-04-11T03:45:47.714Z,2.951965
2019-04-11T03:46:12.976Z,2.962036
2019-04-11T03:46:41.645Z,2.972107
2019-04-11T03:47:08.229Z,2.972107
2019-04-11T03:47:31.687Z,2.972107
2019-04-11T03:48:01.573Z,2.951965
2019-04-11T03:48:28.883Z,2.951965
2019-04-11T03:48:52.825Z,2.931824
2019-04-11T03:49:20.510Z,2.921753
2019-04-11T03:49:44.604Z,2.901611
2019-04-11T03:50:09.239Z,2.901611
2019-04-11T03:50:32.721Z,2.891541
2019-04-11T03:50:57.997Z,2.901611
2019-04-11T03:51:23.950Z,2.851257
2019-04-11T03:51:49.147Z,2.851257
2019-04-11T03:52:13.431Z,2.851257
2019-04-11T03:52:39.316Z,2.851257
2019-04-11T03:53:04.533Z,2.851257
2019-04-11T03:53:30.444Z,2.841187
2019-04-11T03:53:55.172Z,2.841187
2019-04-11T03:54:19.483Z,2.841187
2019-04-11T03:54:43.862Z,2.841187
2019-04-11T03:55:09.260Z,2.851257
2019-04-11T03:55:33.418Z,2.841187
2019-04-11T03:55:57.680Z,2.851257
2019-04-11T03:56:22.927Z,2.871399
2019-04-11T03:56:47.210Z,2.871399
2019-04-11T03:57:11.605Z,2.871399
2019-04-11T03:57:35.868Z,2.891541
2019-04-11T03:58:02.121Z,2.891541
2019-04-11T03:58:27.424Z,2.901611
2019-04-11T03:58:51.643Z,2.871399
2019-04-11T03:59:17.239Z,2.871399
2019-04-11T03:59:42.234Z,2.871399
2019-04-11T04:00:08.151Z,2.851257
2019-04-11T04:00:36.880Z,2.841187
2019-04-11T04:01:03.852Z,2.841187
2019-04-11T04:01:28.109Z,2.821045
2019-04-11T04:01:52.374Z,2.821045
2019-04-11T04:02:18.638Z,2.810974
2019-04-11T04:02:42.904Z,2.821045
2019-04-11T04:03:07.203Z,2.821045
2019-04-11T04:03:32.496Z,2.810974
2019-04-11T04:03:56.862Z,2.810974
2019-04-11T04:04:22.245Z,2.780762
2019-04-11T04:04:47.436Z,2.780762
2019-04-11T04:05:11.542Z,2.770691
2019-04-11T04:05:37.253Z,2.750549
2019-04-11T04:06:02.768Z,2.750549
2019-04-11T04:06:27.172Z,2.720337
2019-04-11T04:06:51.388Z,2.690125
2019-04-11T04:07:17.705Z,2.690125
2019-04-11T04:07:42.784Z,2.669983
2019-04-11T04:08:07.074Z,2.669983
2019-04-11T04:08:32.399Z,2.690125
2019-04-11T04:08:56.673Z,2.710266
2019-04-11T04:09:22.090Z,2.690125
2019-04-11T04:09:47.470Z,2.710266
2019-04-11T04:10:13.904Z,2.720337
2019-04-11T04:10:37.994Z,2.720337
2019-04-11T04:11:02.305Z,2.740479
2019-04-11T04:11:28.202Z,2.740479
2019-04-11T04:11:52.909Z,2.690125
2019-04-11T04:12:17.219Z,2.669983
2019-04-11T04:12:41.595Z,2.669983
2019-04-11T04:13:09.714Z,2.690125
2019-04-11T04:13:33.077Z,2.690125
2019-04-11T04:13:57.410Z,2.720337
2019-04-11T04:14:22.474Z,2.710266
2019-04-11T04:14:47.917Z,2.740479
2019-04-11T04:15:31.155Z,2.750549
2019-04-11T04:15:55.247Z,2.740479
2019-04-11T04:16:18.527Z,2.720337
2019-04-11T04:16:41.230Z,2.720337
2019-04-11T04:17:04.582Z,2.740479
2019-04-11T04:17:29.161Z,2.690125
2019-04-11T04:17:53.455Z,2.690125
2019-04-11T04:18:17.712Z,2.690125
2019-04-11T04:18:42.194Z,2.690125
2019-04-11T04:19:09.517Z,2.669983
2019-04-11T04:19:33.562Z,2.669983
2019-04-11T04:19:57.855Z,2.690125
2019-04-11T04:20:23.225Z,2.710266
2019-04-11T04:20:47.437Z,2.690125
2019-04-11T04:21:11.781Z,2.690125
2019-04-11T04:21:37.019Z,2.669983
2019-04-11T04:22:01.310Z,2.669983
2019-04-11T04:22:25.653Z,2.669983
2019-04-11T04:22:50.828Z,2.659912
2019-04-11T04:23:15.082Z,2.639771
2019-04-11T04:23:39.434Z,2.6297
2019-04-11T04:24:04.759Z,2.6297
2019-04-11T04:24:32.592Z,2.659912
2019-04-11T04:24:57.276Z,2.659912
2019-04-11T04:25:22.562Z,2.659912
2019-04-11T04:25:47.909Z,2.659912
2019-04-11T04:26:13.197Z,2.659912
2019-04-11T04:26:37.486Z,2.639771
2019-04-11T04:27:02.571Z,2.639771
2019-04-11T04:27:28.643Z,2.639771
2019-04-11T04:27:52.896Z,2.639771
2019-04-11T04:28:17.257Z,2.6297
2019-04-11T04:28:41.415Z,2.599487
2019-04-11T04:29:05.784Z,2.589417
2019-04-11T04:29:30.318Z,2.589417
2019-04-11T04:29:58.206Z,2.589417
2019-04-11T04:30:22.696Z,2.569275
2019-04-11T04:30:47.934Z,2.569275
2019-04-11T04:31:12.590Z,2.589417
2019-04-11T04:31:36.920Z,2.589417
2019-04-11T04:32:01.189Z,2.589417
2019-04-11T04:32:26.386Z,2.589417
2019-04-11T04:32:50.648Z,2.589417
2019-04-11T04:33:15.176Z,2.589417
2019-04-11T04:33:41.366Z,2.589417
2019-04-11T04:34:05.675Z,2.589417
2019-04-11T04:34:29.885Z,2.599487
2019-04-11T04:34:54.280Z,2.599487
2019-04-11T04:35:21.893Z,2.589417
2019-04-11T04:35:45.832Z,2.599487
2019-04-11T04:36:11.730Z,2.599487
2019-04-11T04:36:36.466Z,2.599487
2019-04-11T04:37:01.828Z,2.589417
2019-04-11T04:37:27.828Z,2.569275
2019-04-11T04:37:53.080Z,2.559204
2019-04-11T04:38:17.346Z,2.569275
2019-04-11T04:38:42.719Z,2.569275
2019-04-11T04:39:07.016Z,2.569275
2019-04-11T04:39:32.765Z,2.569275
2019-04-11T04:40:17.468Z,2.589417
2019-04-11T04:40:40.863Z,2.589417
2019-04-11T04:41:06.990Z,2.569275
2019-04-11T04:41:30.688Z,2.569275
2019-04-11T04:41:58.647Z,2.559204
2019-04-11T04:42:24.813Z,2.559204
2019-04-11T04:42:48.653Z,2.569275
2019-04-11T04:43:12.986Z,2.539062
2019-04-11T04:43:37.357Z,2.539062
2019-04-11T04:44:02.680Z,2.528992
2019-04-11T04:44:27.980Z,2.539062
2019-04-11T04:44:52.275Z,2.539062
2019-04-11T04:45:17.628Z,2.559204
2019-04-11T04:45:56.265Z,2.569275
2019-04-11T04:46:25.827Z,2.569275
2019-04-11T04:46:52.384Z,2.559204
2019-04-11T04:47:13.525Z,2.569275
2019-04-11T04:47:39.417Z,2.569275
2019-04-11T04:48:04.373Z,2.589417
2019-04-11T04:48:27.711Z,2.589417
2019-04-11T04:48:52.219Z,2.589417
2019-04-11T04:49:17.051Z,2.599487
2019-04-11T04:49:42.076Z,2.599487
2019-04-11T04:50:07.076Z,2.569275
2019-04-11T04:50:32.301Z,2.569275
2019-04-11T04:51:01.564Z,2.569275
2019-04-11T04:51:25.123Z,2.569275
2019-04-11T04:51:49.360Z,2.559204
2019-04-11T04:52:15.042Z,2.569275
2019-04-11T04:52:39.392Z,2.559204
2019-04-11T04:53:03.606Z,2.559204
2019-04-11T04:53:29.136Z,2.569275
2019-04-11T04:53:53.986Z,2.539062
2019-04-11T04:54:18.205Z,2.569275
2019-04-11T04:54:42.518Z,2.569275
2019-04-11T04:55:06.891Z,2.589417
2019-04-11T04:55:31.157Z,2.589417
2019-04-11T04:55:55.852Z,2.599487
2019-04-11T04:56:24.717Z,2.599487
2019-04-11T04:56:48.769Z,2.599487